createdAt,value
2022-08-15T00:00:31.224Z,0.00
2022-08-15T00:01:31.303Z,0.00
2022-08-15T00:02:34.020Z,0.00
2022-08-15T00:04:00.581Z,0.00
2022-08-15T00:04:34.095Z,0.00
2022-08-15T00:05:31.111Z,0.00
2022-08-15T00:06:39.109Z,0.00
2022-08-15T00:07:45.795Z,0.00
2022-08-15T00:08:50.653Z,0.00
2022-08-15T00:09:55.873Z,0.00
2022-08-15T00:11:02.206Z,0.00
2022-08-15T00:11:30.980Z,0.00
2022-08-15T00:12:35.335Z,0.00
2022-08-15T00:13:30.937Z,0.00
2022-08-15T00:14:32.353Z,0.00
2022-08-15T00:15:34.317Z,0.00
2022-08-15T00:16:30.867Z,0.00
2022-08-15T00:17:47.945Z,0.00
2022-08-15T00:18:30.823Z,0.00
2022-08-15T00:19:32.574Z,0.00
2022-08-15T00:20:33.495Z,0.00
2022-08-15T00:21:30.757Z,0.00
2022-08-15T00:22:34.428Z,0.00
2022-08-15T00:23:30.844Z,0.00
2022-08-15T00:24:30.688Z,0.00
2022-08-15T00:25:30.718Z,0.00
2022-08-15T00:26:55.206Z,0.00
2022-08-15T00:27:30.622Z,0.00
2022-08-15T00:28:36.273Z,0.00
2022-08-15T00:29:38.173Z,0.00
2022-08-15T00:30:49.786Z,0.00
2022-08-15T00:31:41.993Z,0.00
2022-08-15T00:33:02.430Z,0.00
2022-08-15T00:33:30.596Z,0.00
2022-08-15T00:34:38.989Z,0.00
2022-08-15T00:35:30.449Z,0.00
2022-08-15T00:36:53.088Z,0.00
2022-08-15T00:37:30.401Z,0.00
2022-08-15T00:38:38.983Z,0.00
2022-08-15T00:39:33.232Z,0.00
2022-08-15T00:40:31.669Z,0.00
2022-08-15T00:41:35.345Z,0.00
2022-08-15T00:42:30.708Z,0.00
2022-08-15T00:43:31.000Z,0.00
2022-08-15T00:45:00.372Z,0.00
2022-08-15T00:45:33.108Z,0.00
2022-08-15T00:46:30.203Z,0.00
2022-08-15T00:47:31.848Z,0.00
2022-08-15T00:48:30.160Z,0.00
2022-08-15T00:49:30.138Z,0.00
2022-08-15T00:50:33.617Z,0.00
2022-08-15T00:51:30.663Z,0.00
2022-08-15T00:52:30.800Z,0.00
2022-08-15T00:53:30.414Z,0.00
2022-08-15T00:54:56.238Z,0.00
2022-08-15T00:55:30.626Z,0.00
2022-08-15T00:56:30.974Z,0.00
2022-08-15T00:57:59.680Z,0.00
2022-08-15T00:58:34.302Z,0.00
2022-08-15T00:59:31.753Z,0.00
2022-08-15T01:00:33.997Z,0.00
2022-08-15T01:01:29.906Z,0.00
2022-08-15T01:02:35.553Z,0.00
2022-08-15T01:03:29.829Z,0.00
2022-08-15T01:04:35.111Z,0.00
2022-08-15T01:05:29.786Z,0.00
2022-08-15T01:06:31.960Z,0.00
2022-08-15T01:07:29.740Z,0.00
2022-08-15T01:08:36.129Z,0.00
2022-08-15T01:09:29.696Z,0.00
2022-08-15T01:10:36.309Z,0.00
2022-08-15T01:11:33.780Z,0.00
2022-08-15T01:12:29.631Z,0.00
2022-08-15T01:14:04.492Z,0.00
2022-08-15T01:14:55.778Z,0.00
2022-08-15T01:15:42.019Z,0.00
2022-08-15T01:16:34.818Z,0.00
2022-08-15T01:17:30.122Z,0.00
2022-08-15T01:18:34.814Z,0.00
2022-08-15T01:19:29.761Z,0.00
2022-08-15T01:20:29.455Z,0.00
2022-08-15T01:21:29.432Z,0.00
2022-08-15T01:22:29.410Z,0.00
2022-08-15T01:23:39.351Z,0.00
2022-08-15T01:24:29.368Z,0.00
2022-08-15T01:26:41.435Z,0.00
2022-08-15T01:26:42.915Z,0.00
2022-08-15T01:27:34.654Z,0.00
2022-08-15T01:28:31.531Z,0.00
2022-08-15T01:29:29.255Z,0.00
2022-08-15T01:31:00.713Z,0.00
2022-08-15T01:31:29.212Z,0.00
2022-08-15T01:32:29.188Z,0.00
2022-08-15T01:33:29.166Z,0.00
2022-08-15T01:34:29.145Z,0.00
2022-08-15T01:35:29.123Z,0.00
2022-08-15T01:36:31.659Z,0.00
2022-08-15T01:37:57.069Z,0.00
2022-08-15T01:38:36.715Z,0.00
2022-08-15T01:39:29.087Z,0.00
2022-08-15T01:40:51.460Z,0.00
2022-08-15T01:41:36.793Z,0.00
2022-08-15T01:42:28.968Z,0.00
2022-08-15T01:43:28.948Z,0.00
2022-08-15T01:44:32.793Z,0.00
2022-08-15T01:45:28.903Z,0.00
2022-08-15T01:46:28.881Z,0.00
2022-08-15T01:47:28.860Z,0.00
2022-08-15T01:48:28.839Z,0.00
2022-08-15T01:49:28.815Z,0.00
2022-08-15T01:50:31.106Z,0.00
2022-08-15T01:51:28.772Z,0.00
2022-08-15T01:52:59.392Z,0.00
2022-08-15T01:53:29.931Z,0.00
2022-08-15T01:54:58.675Z,0.00
2022-08-15T01:55:32.630Z,0.00
2022-08-15T01:56:36.377Z,0.00
2022-08-15T01:57:28.635Z,0.00
2022-08-15T01:58:31.240Z,0.00
2022-08-15T01:59:32.577Z,0.00
2022-08-15T02:00:28.573Z,0.00
2022-08-15T02:01:35.156Z,0.00
2022-08-15T02:02:39.856Z,0.00
2022-08-15T02:03:28.505Z,0.00
2022-08-15T02:04:28.481Z,0.00
2022-08-15T02:05:31.251Z,0.00
2022-08-15T02:06:35.768Z,0.00
2022-08-15T02:07:32.387Z,0.00
2022-08-15T02:08:34.681Z,0.00
2022-08-15T02:09:38.889Z,0.00
2022-08-15T02:10:28.347Z,0.00
2022-08-15T02:11:28.327Z,0.00
2022-08-15T02:13:03.517Z,0.00
2022-08-15T02:13:28.281Z,0.00
2022-08-15T02:14:38.263Z,0.00
2022-08-15T02:15:28.235Z,0.00
2022-08-15T02:16:28.211Z,0.00
2022-08-15T02:17:31.689Z,0.00
2022-08-15T02:18:28.168Z,0.00
2022-08-15T02:19:28.145Z,0.00
2022-08-15T02:20:28.122Z,0.00
2022-08-15T02:21:37.225Z,0.00
2022-08-15T02:22:28.394Z,0.00
2022-08-15T02:23:30.150Z,0.00
2022-08-15T02:24:28.032Z,0.00
2022-08-15T02:25:28.010Z,0.00
2022-08-15T02:26:27.987Z,0.00
2022-08-15T02:27:27.965Z,0.00
2022-08-15T02:28:35.363Z,0.00
2022-08-15T02:29:27.919Z,0.00
2022-08-15T02:30:31.038Z,0.00
2022-08-15T02:31:27.877Z,0.00
2022-08-15T02:32:30.890Z,0.00
2022-08-15T02:33:27.832Z,0.00
2022-08-15T02:34:44.589Z,0.00
2022-08-15T02:35:28.672Z,0.00
2022-08-15T02:36:31.423Z,0.00
2022-08-15T02:37:27.741Z,0.00
2022-08-15T02:38:48.029Z,0.00
2022-08-15T02:39:27.704Z,0.00
2022-08-15T02:40:47.004Z,0.00
2022-08-15T02:41:27.651Z,0.00
2022-08-15T02:42:27.630Z,0.00
2022-08-15T02:43:27.607Z,0.00
2022-08-15T02:44:27.584Z,0.00
2022-08-15T02:45:28.477Z,0.00
2022-08-15T02:46:28.948Z,0.00
2022-08-15T02:47:27.515Z,0.00
2022-08-15T02:48:28.969Z,0.00
2022-08-15T02:49:27.469Z,0.00
2022-08-15T02:50:27.446Z,0.00
2022-08-15T02:51:27.427Z,0.00
2022-08-15T02:52:27.402Z,0.00
2022-08-15T02:53:27.381Z,0.00
2022-08-15T02:54:36.674Z,0.00
2022-08-15T02:55:30.774Z,0.00
2022-08-15T02:56:31.163Z,0.00
2022-08-15T02:57:27.288Z,0.00
2022-08-15T02:58:28.524Z,0.00
2022-08-15T02:59:27.244Z,0.00
2022-08-15T03:00:27.600Z,0.00
2022-08-15T03:01:27.221Z,0.00
2022-08-15T03:02:30.030Z,0.00
2022-08-15T03:03:27.156Z,0.00
2022-08-15T03:04:27.576Z,0.00
2022-08-15T03:05:27.109Z,0.00
2022-08-15T03:06:31.115Z,0.00
2022-08-15T03:07:27.064Z,0.00
2022-08-15T03:08:27.044Z,0.00
2022-08-15T03:09:32.374Z,0.00
2022-08-15T03:10:29.519Z,0.00
2022-08-15T03:11:26.974Z,0.00
2022-08-15T03:12:31.209Z,0.00
2022-08-15T03:13:26.928Z,0.00
2022-08-15T03:14:33.806Z,0.00
2022-08-15T03:15:26.883Z,0.00
2022-08-15T03:16:26.862Z,0.00
2022-08-15T03:17:26.837Z,0.00
2022-08-15T03:18:31.186Z,0.00
2022-08-15T03:19:26.790Z,0.00
2022-08-15T03:20:30.846Z,0.00
2022-08-15T03:21:26.747Z,0.00
2022-08-15T03:22:42.673Z,0.00
2022-08-15T03:23:41.514Z,0.00
2022-08-15T03:24:26.678Z,0.00
2022-08-15T03:25:29.782Z,0.00
2022-08-15T03:26:46.248Z,0.00
2022-08-15T03:27:26.609Z,0.00
2022-08-15T03:28:28.145Z,0.00
2022-08-15T03:29:31.473Z,0.00
2022-08-15T03:30:26.546Z,0.00
2022-08-15T03:31:26.518Z,0.00
2022-08-15T03:32:32.717Z,0.00
2022-08-15T03:33:54.620Z,0.00
2022-08-15T03:34:28.737Z,0.00
2022-08-15T03:35:27.445Z,0.00
2022-08-15T03:36:26.407Z,0.00
2022-08-15T03:37:26.382Z,0.00
2022-08-15T03:38:49.000Z,0.00
2022-08-15T03:39:26.492Z,0.00
2022-08-15T03:40:28.891Z,0.00
2022-08-15T03:41:26.291Z,0.00
2022-08-15T03:42:26.270Z,0.00
2022-08-15T03:43:26.247Z,0.00
2022-08-15T03:44:28.200Z,0.00
2022-08-15T03:45:26.200Z,0.00
2022-08-15T03:46:26.182Z,0.00
2022-08-15T03:47:26.156Z,0.00
2022-08-15T03:48:27.950Z,0.00
2022-08-15T03:50:24.235Z,0.00
2022-08-15T03:50:35.596Z,0.00
2022-08-15T03:51:26.062Z,0.00
2022-08-15T03:52:31.756Z,0.00
2022-08-15T03:53:28.497Z,0.00
2022-08-15T03:54:26.104Z,0.00
2022-08-15T03:55:25.971Z,0.00
2022-08-15T03:56:25.949Z,0.00
2022-08-15T03:57:25.924Z,0.00
2022-08-15T03:58:32.631Z,0.00
2022-08-15T03:59:25.887Z,0.00
2022-08-15T04:00:26.359Z,0.00
2022-08-15T04:01:29.118Z,0.00
2022-08-15T04:02:30.258Z,0.00
2022-08-15T04:03:25.794Z,0.00
2022-08-15T04:04:25.768Z,0.00
2022-08-15T04:05:25.743Z,0.00
2022-08-15T04:06:28.183Z,0.00
2022-08-15T04:07:25.696Z,0.00
2022-08-15T04:08:47.794Z,0.00
2022-08-15T04:09:26.440Z,0.00
2022-08-15T04:10:38.274Z,0.00
2022-08-15T04:11:34.973Z,0.00
2022-08-15T04:12:26.140Z,0.00
2022-08-15T04:13:25.563Z,0.00
2022-08-15T04:14:33.463Z,0.00
2022-08-15T04:15:25.514Z,0.00
2022-08-15T04:17:03.922Z,0.00
2022-08-15T04:17:56.545Z,0.00
2022-08-15T04:18:43.406Z,0.00
2022-08-15T04:19:25.422Z,0.00
2022-08-15T04:20:32.017Z,0.00
2022-08-15T04:21:25.377Z,5.63
2022-08-15T04:22:28.671Z,5.63
2022-08-15T04:23:25.333Z,5.63
2022-08-15T04:24:28.770Z,5.63
2022-08-15T04:25:25.287Z,5.63
2022-08-15T04:26:26.694Z,5.63
2022-08-15T04:27:25.242Z,5.63
2022-08-15T04:28:39.164Z,5.63
2022-08-15T04:29:25.196Z,5.63
2022-08-15T04:30:25.174Z,11.25
2022-08-15T04:31:25.152Z,11.25
2022-08-15T04:32:29.237Z,11.25
2022-08-15T04:34:01.791Z,11.25
2022-08-15T04:34:48.552Z,11.25
2022-08-15T04:35:25.061Z,16.88
2022-08-15T04:36:30.312Z,16.88
2022-08-15T04:37:25.252Z,16.88
2022-08-15T04:38:24.991Z,16.88
2022-08-15T04:39:25.021Z,22.50
2022-08-15T04:41:15.474Z,22.50
2022-08-15T04:41:28.791Z,22.50
2022-08-15T04:42:24.898Z,22.50
2022-08-15T04:43:24.874Z,28.13
2022-08-15T04:44:28.795Z,28.13
2022-08-15T04:45:24.828Z,28.13
2022-08-15T04:46:26.500Z,28.13
2022-08-15T04:47:24.782Z,33.75
2022-08-15T04:48:24.761Z,33.75
2022-08-15T04:49:24.736Z,33.75
2022-08-15T04:50:24.714Z,33.75
2022-08-15T04:51:34.869Z,39.38
2022-08-15T04:52:24.669Z,39.38
2022-08-15T04:53:24.986Z,39.38
2022-08-15T04:54:24.625Z,39.38
2022-08-15T04:55:44.272Z,45.00
2022-08-15T04:56:48.304Z,45.00
2022-08-15T04:57:24.555Z,45.00
2022-08-15T04:58:41.836Z,45.00
2022-08-15T04:59:34.638Z,45.00
2022-08-15T05:00:24.487Z,50.63
2022-08-15T05:01:24.495Z,50.63
2022-08-15T05:02:50.595Z,50.63
2022-08-15T05:03:24.466Z,50.63
2022-08-15T05:04:26.039Z,56.25
2022-08-15T05:05:24.370Z,56.25
2022-08-15T05:06:29.248Z,56.25
2022-08-15T05:07:27.100Z,56.25
2022-08-15T05:08:24.305Z,56.25
2022-08-15T05:09:24.303Z,61.88
2022-08-15T05:10:24.255Z,61.88
2022-08-15T05:11:24.231Z,61.88
2022-08-15T05:12:24.209Z,61.88
2022-08-15T05:13:24.185Z,61.88
2022-08-15T05:14:35.690Z,67.50
2022-08-15T05:15:24.140Z,67.50
2022-08-15T05:16:33.569Z,67.50
2022-08-15T05:17:24.093Z,67.50
2022-08-15T05:18:24.074Z,67.50
2022-08-15T05:19:24.049Z,73.13
2022-08-15T05:20:24.330Z,73.13
2022-08-15T05:21:43.146Z,73.13
2022-08-15T05:22:36.162Z,73.13
2022-08-15T05:23:34.161Z,73.13
2022-08-15T05:24:29.365Z,78.75
2022-08-15T05:25:25.391Z,78.75
2022-08-15T05:26:54.035Z,78.75
2022-08-15T05:27:23.871Z,78.75
2022-08-15T05:28:29.118Z,78.75
2022-08-15T05:29:23.826Z,84.38
2022-08-15T05:30:23.813Z,84.38
2022-08-15T05:31:23.776Z,84.38
2022-08-15T05:32:23.755Z,84.38
2022-08-15T05:33:57.183Z,90.00
2022-08-15T05:34:43.056Z,90.00
2022-08-15T05:35:23.685Z,90.00
2022-08-15T05:36:28.057Z,90.00
2022-08-15T05:37:23.639Z,95.63
2022-08-15T05:38:31.148Z,95.63
2022-08-15T05:39:23.664Z,95.63
2022-08-15T05:40:24.492Z,95.63
2022-08-15T05:41:23.548Z,95.63
2022-08-15T05:42:31.320Z,95.63
2022-08-15T05:43:23.604Z,95.63
2022-08-15T05:44:39.063Z,95.63
2022-08-15T05:45:30.819Z,101.25
2022-08-15T05:46:25.314Z,101.25
2022-08-15T05:47:23.410Z,101.25
2022-08-15T05:48:33.906Z,101.25
2022-08-15T05:49:23.365Z,101.25
2022-08-15T05:50:25.576Z,101.25
2022-08-15T05:51:23.320Z,106.88
2022-08-15T05:52:23.299Z,106.88
2022-08-15T05:53:24.711Z,106.88
2022-08-15T05:54:25.859Z,106.88
2022-08-15T05:55:23.230Z,106.88
2022-08-15T05:56:23.208Z,106.88
2022-08-15T05:57:23.184Z,112.50
2022-08-15T05:58:37.873Z,112.50
2022-08-15T05:59:23.141Z,112.50
2022-08-15T06:00:23.152Z,112.50
2022-08-15T06:01:23.127Z,112.50
2022-08-15T06:02:37.154Z,112.50
2022-08-15T06:03:23.113Z,112.50
2022-08-15T06:04:30.072Z,112.50
2022-08-15T06:05:23.007Z,118.13
2022-08-15T06:06:25.514Z,118.13
2022-08-15T06:07:22.961Z,118.13
2022-08-15T06:08:50.120Z,118.13
2022-08-15T06:09:23.091Z,118.13
2022-08-15T06:10:35.364Z,118.13
2022-08-15T06:11:22.869Z,118.13
2022-08-15T06:12:26.030Z,118.13
2022-08-15T06:13:22.825Z,118.13
2022-08-15T06:14:34.964Z,118.13
2022-08-15T06:15:22.782Z,118.13
2022-08-15T06:16:45.950Z,118.13
2022-08-15T06:17:25.430Z,118.13
2022-08-15T06:18:22.716Z,123.75
2022-08-15T06:19:22.859Z,123.75
2022-08-15T06:20:29.555Z,123.75
2022-08-15T06:21:22.647Z,123.75
2022-08-15T06:22:25.628Z,123.75
2022-08-15T06:23:36.875Z,123.75
2022-08-15T06:24:26.488Z,123.75
2022-08-15T06:25:22.558Z,129.38
2022-08-15T06:26:22.540Z,129.38
2022-08-15T06:27:39.862Z,129.38
2022-08-15T06:28:28.180Z,129.38
2022-08-15T06:29:22.468Z,129.38
2022-08-15T06:30:22.447Z,129.38
2022-08-15T06:31:22.423Z,129.38
2022-08-15T06:32:23.085Z,135.00
2022-08-15T06:33:22.382Z,129.38
2022-08-15T06:34:54.814Z,135.00
2022-08-15T06:35:26.111Z,146.25
2022-08-15T06:36:22.313Z,135.00
2022-08-15T06:37:22.290Z,140.63
2022-08-15T06:38:36.798Z,135.00
2022-08-15T06:39:22.280Z,135.00
2022-08-15T06:40:27.861Z,135.00
2022-08-15T06:41:25.016Z,140.63
2022-08-15T06:42:22.179Z,140.63
2022-08-15T06:43:22.160Z,140.63
2022-08-15T06:44:30.585Z,140.63
2022-08-15T06:45:22.114Z,140.63
2022-08-15T06:46:40.091Z,140.63
2022-08-15T06:47:22.069Z,140.63
2022-08-15T06:48:59.806Z,140.63
2022-08-15T06:49:23.991Z,140.63
2022-08-15T06:50:22.004Z,140.63
2022-08-15T06:51:21.981Z,140.63
2022-08-15T06:52:25.466Z,140.63
2022-08-15T06:53:21.936Z,140.63
2022-08-15T06:54:34.860Z,140.63
2022-08-15T06:55:21.893Z,140.63
2022-08-15T06:56:21.878Z,146.25
2022-08-15T06:57:21.849Z,146.25
2022-08-15T06:58:56.157Z,146.25
2022-08-15T06:59:35.991Z,146.25
2022-08-15T07:00:35.986Z,146.25
2022-08-15T07:01:21.810Z,146.25
2022-08-15T07:02:21.857Z,146.25
2022-08-15T07:03:25.711Z,146.25
2022-08-15T07:04:21.697Z,146.25
2022-08-15T07:05:27.591Z,146.25
2022-08-15T07:06:21.652Z,151.88
2022-08-15T07:07:21.828Z,146.25
2022-08-15T07:08:21.608Z,146.25
2022-08-15T07:09:23.265Z,146.25
2022-08-15T07:10:21.565Z,151.88
2022-08-15T07:11:21.550Z,151.88
2022-08-15T07:12:37.620Z,151.88
2022-08-15T07:13:21.499Z,151.88
2022-08-15T07:14:22.795Z,151.88
2022-08-15T07:15:21.456Z,151.88
2022-08-15T07:16:21.434Z,151.88
2022-08-15T07:17:21.412Z,151.88
2022-08-15T07:18:21.388Z,151.88
2022-08-15T07:19:21.367Z,151.88
2022-08-15T07:20:38.209Z,151.88
2022-08-15T07:21:21.326Z,151.88
2022-08-15T07:22:35.022Z,151.88
2022-08-15T07:23:21.281Z,151.88
2022-08-15T07:24:33.315Z,151.88
2022-08-15T07:25:21.236Z,151.88
2022-08-15T07:26:21.215Z,157.50
2022-08-15T07:27:21.194Z,157.50
2022-08-15T07:28:21.171Z,157.50
2022-08-15T07:29:21.152Z,151.88
2022-08-15T07:30:30.906Z,157.50
2022-08-15T07:31:25.322Z,157.50
2022-08-15T07:32:32.679Z,157.50
2022-08-15T07:33:23.203Z,157.50
2022-08-15T07:34:22.915Z,157.50
2022-08-15T07:35:21.022Z,157.50
2022-08-15T07:36:29.540Z,157.50
2022-08-15T07:37:20.978Z,157.50
2022-08-15T07:38:22.088Z,157.50
2022-08-15T07:39:33.062Z,157.50
2022-08-15T07:40:28.775Z,157.50
2022-08-15T07:41:20.892Z,157.50
2022-08-15T07:42:28.883Z,157.50
2022-08-15T07:43:21.052Z,157.50
2022-08-15T07:44:21.769Z,157.50
2022-08-15T07:45:20.806Z,157.50
2022-08-15T07:46:23.335Z,157.50
2022-08-15T07:47:20.960Z,157.50
2022-08-15T07:48:20.742Z,157.50
2022-08-15T07:49:22.123Z,157.50
2022-08-15T07:50:36.516Z,157.50
2022-08-15T07:51:21.664Z,157.50
2022-08-15T07:53:20.633Z,151.88
2022-08-15T07:54:34.185Z,151.88
2022-08-15T07:56:14.595Z,151.88
2022-08-15T07:56:39.200Z,157.50
2022-08-15T07:57:20.633Z,163.13
2022-08-15T07:58:23.848Z,157.50
2022-08-15T07:59:23.789Z,157.50
2022-08-15T08:00:45.129Z,157.50
2022-08-15T08:01:34.308Z,157.50
2022-08-15T08:02:29.923Z,157.50
2022-08-15T08:03:20.567Z,157.50
2022-08-15T08:04:23.424Z,157.50
2022-08-15T08:06:33.285Z,157.50
2022-08-15T08:07:33.808Z,157.50
2022-08-15T08:08:43.983Z,157.50
2022-08-15T08:09:20.293Z,157.50
2022-08-15T08:10:23.450Z,157.50
2022-08-15T08:11:20.248Z,157.50
2022-08-15T08:12:30.247Z,157.50
2022-08-15T08:13:22.618Z,157.50
2022-08-15T08:14:40.656Z,157.50
2022-08-15T08:15:37.395Z,157.50
2022-08-15T08:16:22.967Z,157.50
2022-08-15T08:17:20.119Z,157.50
2022-08-15T08:18:26.634Z,157.50
2022-08-15T08:19:20.078Z,168.75
2022-08-15T08:20:21.344Z,157.50
2022-08-15T08:21:29.505Z,157.50
2022-08-15T08:22:21.820Z,157.50
2022-08-15T08:23:19.995Z,157.50
2022-08-15T08:24:19.973Z,163.13
2022-08-15T08:25:36.745Z,157.50
2022-08-15T08:26:21.471Z,157.50
2022-08-15T08:27:19.911Z,157.50
2022-08-15T08:28:19.889Z,163.13
2022-08-15T08:29:19.899Z,157.50
2022-08-15T08:30:43.319Z,157.50
2022-08-15T08:31:19.827Z,157.50
2022-08-15T08:32:24.291Z,163.13
2022-08-15T08:33:19.785Z,157.50
2022-08-15T08:34:38.821Z,157.50
2022-08-15T08:35:19.743Z,163.13
2022-08-15T08:36:36.603Z,163.13
2022-08-15T08:37:19.711Z,163.13
2022-08-15T08:38:59.039Z,163.13
2022-08-15T08:39:19.728Z,157.50
2022-08-15T08:40:19.688Z,163.13
2022-08-15T08:41:19.616Z,163.13
2022-08-15T08:42:20.666Z,163.13
2022-08-15T08:43:19.575Z,163.13
2022-08-15T08:44:23.320Z,163.13
2022-08-15T08:45:19.532Z,163.13
2022-08-15T08:46:29.287Z,163.13
2022-08-15T08:47:19.493Z,163.13
2022-08-15T08:48:20.751Z,163.13
2022-08-15T08:49:19.450Z,163.13
2022-08-15T08:50:32.012Z,163.13
2022-08-15T08:51:19.483Z,163.13
2022-08-15T08:52:26.839Z,163.13
2022-08-15T08:53:19.366Z,163.13
2022-08-15T08:54:24.564Z,163.13
2022-08-15T08:55:19.326Z,163.13
2022-08-15T08:56:33.371Z,163.13
2022-08-15T08:57:19.285Z,168.75
2022-08-15T08:58:35.825Z,163.13
2022-08-15T08:59:19.317Z,168.75
2022-08-15T09:00:19.224Z,168.75
2022-08-15T09:01:20.392Z,163.13
2022-08-15T09:02:21.034Z,163.13
2022-08-15T09:03:19.162Z,163.13
2022-08-15T09:04:19.213Z,163.13
2022-08-15T09:05:19.121Z,163.13
2022-08-15T09:06:26.488Z,168.75
2022-08-15T09:07:19.080Z,163.13
2022-08-15T09:08:21.589Z,163.13
2022-08-15T09:09:22.879Z,168.75
2022-08-15T09:10:27.479Z,174.38
2022-08-15T09:11:18.997Z,168.75
2022-08-15T09:12:18.987Z,168.75
2022-08-15T09:13:18.956Z,168.75
2022-08-15T09:14:32.226Z,168.75
2022-08-15T09:15:19.983Z,168.75
2022-08-15T09:16:18.893Z,168.75
2022-08-15T09:17:30.524Z,168.75
2022-08-15T09:18:19.297Z,168.75
2022-08-15T09:19:18.832Z,168.75
2022-08-15T09:20:19.413Z,168.75
2022-08-15T09:21:18.793Z,168.75
2022-08-15T09:22:18.771Z,180.00
2022-08-15T09:23:21.743Z,191.25
2022-08-15T09:24:37.319Z,174.38
2022-08-15T09:25:18.711Z,174.38
2022-08-15T09:26:20.438Z,174.38
2022-08-15T09:27:18.672Z,174.38
2022-08-15T09:28:28.754Z,185.63
2022-08-15T09:29:19.590Z,191.25
2022-08-15T09:30:45.785Z,202.50
2022-08-15T09:31:23.709Z,213.75
2022-08-15T09:32:30.663Z,225.00
2022-08-15T09:34:30.706Z,236.25
2022-08-15T09:35:23.413Z,236.25
2022-08-15T09:36:26.996Z,225.00
2022-08-15T09:37:18.468Z,196.88
2022-08-15T09:38:26.057Z,185.63
2022-08-15T09:39:18.429Z,185.63
2022-08-15T09:40:58.123Z,180.00
2022-08-15T09:41:20.547Z,185.63
2022-08-15T09:42:33.392Z,180.00
2022-08-15T09:43:18.346Z,185.63
2022-08-15T09:44:36.955Z,202.50
2022-08-15T09:45:18.308Z,202.50
2022-08-15T09:46:36.525Z,208.13
2022-08-15T09:47:20.272Z,202.50
2022-08-15T09:48:18.246Z,196.88
2022-08-15T09:49:18.234Z,196.88
2022-08-15T09:50:35.398Z,202.50
2022-08-15T09:51:18.188Z,196.88
2022-08-15T09:52:35.887Z,196.88
2022-08-15T09:53:18.148Z,191.25
2022-08-15T09:54:29.312Z,191.25
2022-08-15T09:55:18.108Z,185.63
2022-08-15T09:56:18.729Z,157.50
2022-08-15T09:57:18.072Z,168.75
2022-08-15T09:58:19.540Z,180.00
2022-08-15T09:59:19.696Z,168.75
2022-08-15T10:00:20.779Z,157.50
2022-08-15T10:01:18.050Z,151.88
2022-08-15T10:02:37.783Z,151.88
2022-08-15T10:03:17.954Z,151.88
2022-08-15T10:04:21.820Z,196.88
2022-08-15T10:05:17.915Z,196.88
2022-08-15T10:06:32.582Z,202.50
2022-08-15T10:07:17.881Z,163.13
2022-08-15T10:08:28.929Z,191.25
2022-08-15T10:09:27.027Z,185.63
2022-08-15T10:10:17.817Z,196.88
2022-08-15T10:11:17.797Z,191.25
2022-08-15T10:12:17.778Z,196.88
2022-08-15T10:13:17.758Z,202.50
2022-08-15T10:14:17.735Z,185.63
2022-08-15T10:15:17.717Z,191.25
2022-08-15T10:16:17.697Z,180.00
2022-08-15T10:17:17.677Z,191.25
2022-08-15T10:18:17.661Z,191.25
2022-08-15T10:19:17.639Z,185.63
2022-08-15T10:20:19.458Z,196.88
2022-08-15T10:21:17.605Z,196.88
2022-08-15T10:22:17.581Z,196.88
2022-08-15T10:23:17.564Z,208.13
2022-08-15T10:24:28.611Z,202.50
2022-08-15T10:25:17.523Z,202.50
2022-08-15T10:26:34.475Z,202.50
2022-08-15T10:27:17.485Z,202.50
2022-08-15T10:28:35.551Z,196.88
2022-08-15T10:29:20.080Z,202.50
2022-08-15T10:30:45.946Z,196.88
2022-08-15T10:31:17.405Z,202.50
2022-08-15T10:32:36.671Z,208.13
2022-08-15T10:33:23.871Z,213.75
2022-08-15T10:34:17.346Z,213.75
2022-08-15T10:35:17.331Z,219.38
2022-08-15T10:36:29.910Z,230.63
2022-08-15T10:37:17.291Z,236.25
2022-08-15T10:38:32.126Z,241.88
2022-08-15T10:39:18.768Z,253.13
2022-08-15T10:40:17.309Z,253.13
2022-08-15T10:41:17.213Z,258.75
2022-08-15T10:42:22.625Z,225.00
2022-08-15T10:43:17.175Z,213.75
2022-08-15T10:44:35.249Z,208.13
2022-08-15T10:45:17.138Z,202.50
2022-08-15T10:46:17.118Z,213.75
2022-08-15T10:47:17.295Z,225.00
2022-08-15T10:48:44.461Z,258.75
2022-08-15T10:49:25.678Z,247.50
2022-08-15T10:50:23.983Z,225.00
2022-08-15T10:51:17.023Z,253.13
2022-08-15T10:52:18.726Z,208.13
2022-08-15T10:53:16.985Z,213.75
2022-08-15T10:54:19.059Z,241.88
2022-08-15T10:55:16.950Z,230.63
2022-08-15T10:56:59.631Z,230.63
2022-08-15T10:57:16.909Z,213.75
2022-08-15T10:58:20.052Z,191.25
2022-08-15T10:59:17.001Z,185.63
2022-08-15T11:00:37.393Z,236.25
2022-08-15T11:01:17.471Z,247.50
2022-08-15T11:02:17.451Z,253.13
2022-08-15T11:03:16.794Z,241.88
2022-08-15T11:04:49.387Z,264.38
2022-08-15T11:05:16.756Z,281.25
2022-08-15T11:06:16.736Z,258.75
2022-08-15T11:07:16.720Z,253.13
2022-08-15T11:08:17.192Z,258.75
2022-08-15T11:09:16.681Z,253.13
2022-08-15T11:10:21.603Z,281.25
2022-08-15T11:11:19.537Z,292.50
2022-08-15T11:12:16.877Z,275.63
2022-08-15T11:13:16.605Z,247.50
2022-08-15T11:14:20.671Z,219.38
2022-08-15T11:15:22.468Z,219.38
2022-08-15T11:16:32.516Z,253.13
2022-08-15T11:17:16.534Z,241.88
2022-08-15T11:18:21.805Z,230.63
2022-08-15T11:19:20.096Z,241.88
2022-08-15T11:20:16.486Z,247.50
2022-08-15T11:21:16.458Z,258.75
2022-08-15T11:22:16.437Z,241.88
2022-08-15T11:23:16.420Z,236.25
2022-08-15T11:24:16.401Z,253.13
2022-08-15T11:25:16.382Z,247.50
2022-08-15T11:26:23.082Z,230.63
2022-08-15T11:27:23.949Z,230.63
2022-08-15T11:28:37.046Z,236.25
2022-08-15T11:29:16.303Z,241.88
2022-08-15T11:30:22.132Z,264.38
2022-08-15T11:31:16.268Z,236.25
2022-08-15T11:32:25.061Z,270.00
2022-08-15T11:33:16.230Z,264.38
2022-08-15T11:34:37.204Z,270.00
2022-08-15T11:35:16.195Z,270.00
2022-08-15T11:36:17.465Z,264.38
2022-08-15T11:37:17.059Z,264.38
2022-08-15T11:38:20.649Z,275.63
2022-08-15T11:39:19.426Z,303.75
2022-08-15T11:40:16.529Z,286.88
2022-08-15T11:41:16.086Z,281.25
2022-08-15T11:42:17.662Z,258.75
2022-08-15T11:43:16.047Z,298.13
2022-08-15T11:44:16.031Z,320.63
2022-08-15T11:45:16.010Z,326.25
2022-08-15T11:46:30.551Z,337.50
2022-08-15T11:47:15.973Z,326.25
2022-08-15T11:48:15.959Z,320.63
2022-08-15T11:49:15.936Z,326.25
2022-08-15T11:50:16.013Z,303.75
2022-08-15T11:51:16.351Z,275.63
2022-08-15T11:52:39.090Z,286.88
2022-08-15T11:53:15.862Z,286.88
2022-08-15T11:54:15.848Z,286.88
2022-08-15T11:55:23.806Z,286.88
2022-08-15T11:56:23.297Z,292.50
2022-08-15T11:57:43.248Z,298.13
2022-08-15T11:58:18.435Z,309.38
2022-08-15T11:59:15.753Z,309.38
2022-08-15T12:00:21.811Z,309.38
2022-08-15T12:01:15.717Z,298.13
2022-08-15T12:02:31.659Z,292.50
2022-08-15T12:04:39.481Z,281.25
2022-08-15T12:05:42.613Z,247.50
2022-08-15T12:06:30.533Z,230.63
2022-08-15T12:07:15.614Z,275.63
2022-08-15T12:08:27.883Z,241.88
2022-08-15T12:09:15.575Z,253.13
2022-08-15T12:10:30.068Z,286.88
2022-08-15T12:11:15.819Z,360.00
2022-08-15T12:12:16.395Z,382.50
2022-08-15T12:13:12.041Z,281.25
2022-08-15T12:13:33.815Z,393.75
2022-08-15T12:14:23.760Z,399.38
2022-08-15T12:15:17.568Z,421.88
2022-08-15T12:16:29.656Z,427.50
2022-08-15T12:17:15.432Z,393.75
2022-08-15T12:18:32.480Z,388.13
2022-08-15T12:19:15.397Z,421.88
2022-08-15T12:20:25.297Z,410.63
2022-08-15T12:21:15.360Z,399.38
2022-08-15T12:22:54.094Z,399.38
2022-08-15T12:23:16.054Z,371.25
2022-08-15T12:24:15.306Z,360.00
2022-08-15T12:25:18.833Z,365.63
2022-08-15T12:26:37.909Z,343.13
2022-08-15T12:27:16.037Z,298.13
2022-08-15T12:28:24.165Z,315.00
2022-08-15T12:29:15.252Z,315.00
2022-08-15T12:30:15.203Z,298.13
2022-08-15T12:31:17.222Z,326.25
2022-08-15T12:32:36.212Z,337.50
2022-08-15T12:33:15.149Z,360.00
2022-08-15T12:34:27.972Z,416.25
2022-08-15T12:35:24.810Z,433.13
2022-08-15T12:37:03.274Z,410.63
2022-08-15T12:37:39.589Z,410.63
2022-08-15T12:38:15.062Z,405.00
2022-08-15T12:39:15.044Z,399.38
2022-08-15T12:40:54.489Z,393.75
2022-08-15T12:42:47.058Z,416.25
2022-08-15T12:42:49.576Z,399.38
2022-08-15T12:43:17.494Z,433.13
2022-08-15T12:44:14.973Z,450.00
2022-08-15T12:45:14.952Z,472.50
2022-08-15T12:46:14.924Z,495.00
2022-08-15T12:47:14.906Z,489.38
2022-08-15T12:48:26.569Z,461.25
2022-08-15T12:49:14.872Z,444.38
2022-08-15T12:50:14.858Z,466.88